Time;durP1;ratioP1;P1;durP2;ratioP2;P2;SDS_P1;SDS_P2;PMS_P1;PMS_P2;Temp;Humidity;BMP_temperature;BMP_pressure;BME280_temperature;BME280_humidity;BME280_pressure;Samples;Min_cycle;Max_cycle;Signal;HPM_P1;HPM_P2
2023/01/27 00:00:26;;;;;;;0.25;0.13;;;;;;;21.80;39.15;101472.31;7382896;19;20022;-81
2023/01/27 00:02:52;;;;;;;1.20;0.20;;;;;;;21.90;38.79;101467.19;7388590;19;20395;-82
2023/01/27 00:05:19;;;;;;;4.13;0.77;;;;;;;22.33;38.49;101470.50;7383790;19;20046;-81
2023/01/27 00:07:45;;;;;;;0.52;0.45;;;;;;;22.27;38.54;101472.59;7382539;19;20042;-81
2023/01/27 00:10:14;;;;;;;0.55;0.55;;;;;;;22.05;38.94;101475.44;7383434;19;20074;-81
2023/01/27 00:15:27;;;;;;;1.08;0.40;;;;;;;22.32;38.42;101469.75;7386810;19;20018;-82
2023/01/27 00:17:53;;;;;;;0.38;0.38;;;;;;;22.63;38.30;101472.28;7388703;19;20023;-81
2023/01/27 00:25:49;;;;;;;0.10;0.10;;;;;;;22.98;37.97;101476.53;7392959;19;20023;-82
2023/01/27 00:28:21;;;;;;;0.90;0.28;;;;;;;22.92;38.12;101470.13;7392018;19;20480;-83
2023/01/27 00:30:51;;;;;;;0.73;0.30;;;;;;;22.59;38.51;101477.44;7390732;19;20048;-85
2023/01/27 00:33:24;;;;;;;3.47;0.90;;;;;;;22.99;38.20;101469.56;7394893;19;20018;-81
2023/01/27 00:35:59;;;;;;;1.45;0.40;;;;;;;22.70;38.27;101470.22;7390853;19;20046;-81
2023/01/27 00:38:27;;;;;;;1.73;0.50;;;;;;;22.92;38.22;101453.06;7392504;19;20054;-81
2023/01/27 00:43:39;;;;;;;0.50;0.50;;;;;;;22.63;38.15;101456.53;7392411;19;20025;-80
2023/01/27 00:46:06;;;;;;;0.30;0.30;;;;;;;22.07;38.92;101448.09;7390598;19;20014;-80
2023/01/27 00:48:32;;;;;;;0.30;0.30;;;;;;;22.08;39.21;101452.50;7388444;19;20030;-81
2023/01/27 00:50:58;;;;;;;6.22;0.45;;;;;;;21.91;39.23;101448.09;7388711;19;20010;-80
2023/01/27 00:53:25;;;;;;;0.82;0.82;;;;;;;22.21;38.93;101451.94;7394304;19;20019;-81
2023/01/27 00:55:51;;;;;;;0.80;0.80;;;;;;;21.92;39.37;101444.00;7394432;19;20018;-81
2023/01/27 00:58:17;;;;;;;2.30;0.45;;;;;;;21.74;39.83;101440.31;7390034;19;20035;-82
2023/01/27 01:00:44;;;;;;;1.20;0.57;;;;;;;21.66;40.03;101438.53;7390832;19;20789;-82
2023/01/27 01:03:10;;;;;;;1.13;0.82;;;;;;;21.79;39.92;101435.94;7389862;19;20014;-82
2023/01/27 01:05:36;;;;;;;0.73;0.45;;;;;;;21.09;40.67;101441.78;7386808;19;20757;-83
2023/01/27 01:08:03;;;;;;;0.73;0.63;;;;;;;21.20;40.50;101438.19;7387350;19;20018;-82
2023/01/27 01:10:29;;;;;;;0.68;0.32;;;;;;;20.87;41.04;101421.84;7386484;19;20089;-82
2023/01/27 01:12:55;;;;;;;0.50;0.22;;;;;;;21.43;40.30;101422.78;7391827;19;20036;-82
2023/01/27 01:15:21;;;;;;;3.45;0.43;;;;;;;21.41;40.30;101426.13;7392481;19;20014;-81
2023/01/27 01:17:48;;;;;;;1.25;0.60;;;;;;;21.37;40.40;101431.28;7391722;19;20026;-82
2023/01/27 01:20:15;;;;;;;0.88;0.65;;;;;;;21.56;40.40;101428.72;7389248;19;20019;-82
2023/01/27 01:22:41;;;;;;;0.77;0.40;;;;;;;21.22;40.77;101421.47;7392188;19;20022;-81
2023/01/27 01:25:08;;;;;;;1.33;0.80;;;;;;;21.69;39.99;101423.31;7393999;19;20022;-81
2023/01/27 01:27:34;;;;;;;0.95;0.55;;;;;;;21.33;40.35;101421.50;7391572;19;20019;-82
2023/01/27 01:30:00;;;;;;;0.85;0.75;;;;;;;21.49;40.70;101437.72;7386220;19;20381;-81
2023/01/27 01:32:26;;;;;;;0.85;0.73;;;;;;;21.38;40.97;101432.03;7392097;19;20049;-82
2023/01/27 01:34:52;;;;;;;2.97;1.05;;;;;;;22.13;39.82;101423.34;7389350;19;20015;-83
2023/01/27 01:37:19;;;;;;;0.93;0.45;;;;;;;22.16;39.58;101430.78;7389091;19;20030;-81
2023/01/27 01:39:45;;;;;;;0.43;0.22;;;;;;;22.34;39.41;101427.41;7388881;19;20010;-82
2023/01/27 01:42:11;;;;;;;4.75;1.05;;;;;;;22.09;39.54;101428.47;7390818;19;20022;-81
2023/01/27 01:44:42;;;;;;;3.47;0.88;;;;;;;22.00;39.59;101422.31;7389878;19;20015;-82
2023/01/27 01:47:15;;;;;;;2.83;0.47;;;;;;;22.42;39.53;101422.75;7387634;19;20023;-82
2023/01/27 01:49:45;;;;;;;0.95;0.57;;;;;;;22.74;38.83;101422.44;7389413;19;20015;-82
2023/01/27 01:52:19;;;;;;;2.53;1.10;;;;;;;22.56;39.40;101420.91;7390461;19;20014;-83
2023/01/27 01:54:50;;;;;;;0.63;0.63;;;;;;;22.49;39.17;101421.44;7391543;19;20349;-82
2023/01/27 01:57:19;;;;;;;;;;;;;;;22.43;39.32;101418.63;7391504;19;20039;-82
2023/01/27 02:00:03;;;;;;;0.60;0.50;;;;;;;22.63;39.38;101416.78;7388537;19;19982;-82
2023/01/27 02:02:40;;;;;;;0.93;0.60;;;;;;;22.50;39.14;101423.75;7392625;19;20040;-84
2023/01/27 02:05:10;;;;;;;7.55;0.88;;;;;;;22.74;39.25;101422.44;7388304;19;20568;-83
2023/01/27 02:07:46;;;;;;;0.40;0.40;;;;;;;23.40;38.35;101418.47;7390486;19;20037;-82
2023/01/27 02:10:13;;;;;;;0.52;0.52;;;;;;;23.75;37.73;101416.38;7388619;19;20011;-82
2023/01/27 02:12:39;;;;;;;1.75;0.50;;;;;;;24.07;37.54;101420.25;7390500;19;20025;-81
2023/01/27 02:15:08;;;;;;;0.57;0.57;;;;;;;24.49;37.23;101415.16;7391357;19;20023;-82
2023/01/27 02:17:35;;;;;;;0.70;0.68;;;;;;;24.65;36.68;101405.63;7388659;19;20074;-83
2023/01/27 02:20:22;;;;;;;21.52;1.88;;;;;;;24.84;36.43;101412.16;7388571;19;20026;-83
2023/01/27 02:23:21;;;;;;;3.35;1.15;;;;;;;25.32;35.68;101403.44;7392963;19;20014;-82
2023/01/27 02:25:49;;;;;;;1.02;0.77;;;;;;;25.26;35.77;101397.06;7389036;19;20024;-82
2023/01/27 02:28:15;;;;;;;4.03;1.63;;;;;;;25.01;35.90;101403.41;7388154;19;20042;-82
2023/01/27 02:30:42;;;;;;;2.08;1.10;;;;;;;24.08;36.46;101396.16;7387936;19;20022;-82
2023/01/27 02:33:13;;;;;;;10.55;1.67;;;;;;;23.89;36.52;101397.38;7388261;19;20035;-83
2023/01/27 02:35:58;;;;;;;4.13;1.30;;;;;;;23.78;36.78;101398.25;7388505;19;20030;-83
2023/01/27 02:38:28;;;;;;;13.60;1.25;;;;;;;23.88;36.81;101402.31;7387381;19;20010;-83
2023/01/27 02:40:58;;;;;;;6.45;1.10;;;;;;;23.71;37.12;101393.16;7386019;19;20469;-83
2023/01/27 02:43:24;;;;;;;1.67;0.73;;;;;;;23.59;37.18;101397.38;7390085;19;20014;-82
2023/01/27 02:45:50;;;;;;;1.92;0.80;;;;;;;24.14;36.45;101396.13;7384898;19;20022;-82
2023/01/27 02:48:17;;;;;;;3.55;1.55;;;;;;;23.03;37.53;101399.03;7387837;19;20018;-83
2023/01/27 02:50:43;;;;;;;3.95;3.15;;;;;;;22.76;37.92;101411.31;7388047;19;20045;-81
2023/01/27 02:53:09;;;;;;;1.00;1.00;;;;;;;22.92;38.01;101396.22;7388050;19;20472;-83
2023/01/27 02:55:36;;;;;;;1.80;1.33;;;;;;;23.22;38.01;101394.25;7388245;19;20025;-82
2023/01/27 02:58:02;;;;;;;1.27;1.05;;;;;;;23.38;37.58;101393.41;7388413;19;20014;-82
2023/01/27 03:00:44;;;;;;;4.05;1.80;;;;;;;23.32;37.77;101390.56;7387753;19;20022;-83
2023/01/27 03:03:11;;;;;;;3.10;1.08;;;;;;;23.08;38.22;101387.63;7386421;19;20014;-83
2023/01/27 03:05:38;;;;;;;0.45;0.45;;;;;;;22.49;38.67;101388.16;7385382;19;20014;-83
2023/01/27 03:08:04;;;;;;;3.63;2.30;;;;;;;22.54;38.49;101384.50;7386036;19;20018;-83
2023/01/27 03:10:31;;;;;;;2.20;1.25;;;;;;;21.99;40.27;101378.97;7387430;19;20019;-83
2023/01/27 03:12:57;;;;;;;2.78;1.58;;;;;;;23.08;38.21;101386.84;7390133;19;20014;-82
2023/01/27 03:18:14;;;;;;;0.98;0.88;;;;;;;23.13;38.37;101377.53;7386976;19;20036;-81
2023/01/27 03:20:45;;;;;;;2.30;1.23;;;;;;;23.16;38.27;101382.16;7386366;19;20026;-83
2023/01/27 03:23:14;;;;;;;0.63;0.63;;;;;;;23.37;37.94;101379.72;7385142;19;20023;-82
2023/01/27 03:25:45;;;;;;;1.35;1.25;;;;;;;23.66;37.76;101368.34;7383890;19;20140;-82
2023/01/27 03:28:13;;;;;;;1.65;0.82;;;;;;;22.22;39.59;101379.72;7384839;19;20039;-82
2023/01/27 03:31:03;;;;;;;0.30;0.30;;;;;;;22.72;38.85;101377.47;7385872;19;20031;-82
2023/01/27 03:33:51;;;;;;;3.15;1.27;;;;;;;23.08;38.70;101366.97;7387010;19;20022;-82
2023/01/27 03:47:40;;;;;;;2.92;0.80;;;;;;;22.98;38.35;101377.06;7384859;19;20037;-83
2023/01/27 03:50:10;;;;;;;3.95;1.38;;;;;;;22.23;39.17;101381.25;7385705;19;20018;-82
2023/01/27 03:52:36;;;;;;;4.30;0.88;;;;;;;20.15;41.78;101384.66;7388551;19;20496;-83
2023/01/27 03:55:03;;;;;;;1.10;0.85;;;;;;;22.27;39.36;101379.69;7390258;19;20074;-83
2023/01/27 03:57:29;;;;;;;0.60;0.55;;;;;;;22.61;38.50;101377.53;7385521;19;20025;-82
2023/01/27 03:59:56;;;;;;;4.18;1.17;;;;;;;22.59;38.49;101386.56;7384196;19;20098;-82
2023/01/27 04:07:52;;;;;;;1.02;0.68;;;;;;;21.56;39.24;101380.53;7390687;19;20042;-82
2023/01/27 04:10:18;;;;;;;1.98;0.80;;;;;;;21.61;39.46;101383.34;7386553;19;20067;-83
2023/01/27 04:12:47;;;;;;;1.55;1.45;;;;;;;22.89;38.34;101385.94;7390983;19;20025;-82
2023/01/27 04:15:13;;;;;;;1.55;0.80;;;;;;;23.49;37.95;101373.41;7386733;19;20018;-82
2023/01/27 04:17:41;;;;;;;3.92;1.85;;;;;;;22.65;38.70;101382.94;7384240;19;20018;-82
2023/01/27 04:20:08;;;;;;;1.85;0.85;;;;;;;13.75;50.07;101400.44;7387181;19;20477;-82
2023/01/27 04:22:34;;;;;;;1.63;1.20;;;;;;;9.28;97.92;101411.84;7386839;19;20023;-83
2023/01/27 04:25:00;;;;;;;2.58;0.82;;;;;;;5.99;100.00;101415.69;7390505;19;20066;-82
2023/01/27 04:27:27;;;;;;;0.90;0.80;;;;;;;5.42;100.00;101419.94;7386524;19;20019;-82
2023/01/27 04:29:53;;;;;;;3.85;1.15;;;;;;;6.79;100.00;101407.84;7384094;19;20681;-82
2023/01/27 04:32:19;;;;;;;4.35;1.20;;;;;;;9.06;100.00;101403.97;7387683;19;20368;-82
2023/01/27 04:34:45;;;;;;;4.68;1.23;;;;;;;8.61;100.00;101413.97;7385340;19;20022;-82
2023/01/27 04:37:11;;;;;;;5.85;1.77;;;;;;;9.93;100.00;101408.03;7385617;19;20022;-82
2023/01/27 04:39:38;;;;;;;3.70;1.05;;;;;;;18.62;71.39;101383.47;7384239;19;20040;-82
2023/01/27 04:42:04;;;;;;;3.70;0.77;;;;;;;20.28;59.70;101387.84;7386455;19;20438;-82
2023/01/27 04:44:30;;;;;;;1.02;0.95;;;;;;;20.64;56.37;101384.16;7384284;19;20022;-82
2023/01/27 04:46:56;;;;;;;3.40;1.05;;;;;;;20.70;55.19;101379.31;7382733;19;20014;-82
2023/01/27 04:49:25;;;;;;;4.82;1.92;;;;;;;21.42;52.74;101381.56;7384587;19;20015;-82
2023/01/27 04:51:51;;;;;;;1.52;1.05;;;;;;;20.56;51.09;101391.59;7384450;19;20013;-82
2023/01/27 04:54:17;;;;;;;7.88;1.20;;;;;;;21.70;51.09;101380.25;7387510;19;20021;-82
2023/01/27 04:57:04;;;;;;;8.10;2.15;;;;;;;22.22;48.71;101374.03;7384461;19;20023;-82
2023/01/27 04:59:30;;;;;;;3.72;1.25;;;;;;;21.83;48.46;101368.41;7386710;19;20038;-82
2023/01/27 05:01:58;;;;;;;1.10;1.00;;;;;;;22.19;47.48;101360.88;7383805;19;20420;-82
2023/01/27 05:04:25;;;;;;;2.45;1.80;;;;;;;21.46;46.65;101363.00;7384236;19;20094;-82
2023/01/27 05:06:51;;;;;;;1.23;1.13;;;;;;;21.81;46.71;101368.13;7387849;19;20019;-82
2023/01/27 05:09:17;;;;;;;2.20;1.63;;;;;;;22.15;45.23;101358.31;7389463;19;20090;-82
2023/01/27 05:11:43;;;;;;;1.08;0.98;;;;;;;21.98;45.21;101366.09;7389600;19;20357;-82
2023/01/27 05:14:10;;;;;;;2.88;1.25;;;;;;;21.99;44.68;101361.97;7391216;19;20018;-82
2023/01/27 05:16:37;;;;;;;4.53;1.20;;;;;;;22.26;44.02;101357.50;7390699;19;20014;-82
2023/01/27 05:19:04;;;;;;;3.65;2.35;;;;;;;21.67;45.06;101369.19;7392550;19;20014;-82
2023/01/27 05:21:30;;;;;;;0.17;0.17;;;;;;;21.93;44.21;101364.03;7391233;19;20050;-82
2023/01/27 05:23:56;;;;;;;24.65;3.30;;;;;;;21.87;44.23;101360.44;7391274;19;20037;-82
2023/01/27 05:26:26;;;;;;;3.53;1.85;;;;;;;22.13;44.24;101360.91;7389662;19;20014;-82
2023/01/27 05:28:56;;;;;;;1.10;1.03;;;;;;;22.15;43.57;101358.31;7389134;19;20029;-81
2023/01/27 05:31:25;;;;;;;0.93;0.93;;;;;;;22.57;43.50;101365.63;7387650;19;20125;-80
2023/01/27 05:33:53;;;;;;;3.33;1.42;;;;;;;22.31;43.55;101360.31;7390383;19;20401;-81
2023/01/27 05:36:21;;;;;;;0.82;0.45;;;;;;;22.97;42.70;101359.28;7388951;19;20025;-82
2023/01/27 05:38:48;;;;;;;5.35;1.23;;;;;;;22.71;42.78;101358.91;7389110;19;20018;-82
2023/01/27 05:41:15;;;;;;;7.25;1.92;;;;;;;22.39;42.92;101354.88;7391384;19;20018;-82
2023/01/27 05:43:43;;;;;;;2.17;0.95;;;;;;;22.26;42.30;101349.75;7387036;19;20086;-81
2023/01/27 05:46:16;;;;;;;5.68;2.65;;;;;;;21.64;42.98;101361.69;7385974;19;20085;-82
2023/01/27 05:48:44;;;;;;;0.50;0.47;;;;;;;22.00;42.78;101360.69;7384430;19;20022;-82
2023/01/27 05:51:13;;;;;;;3.70;1.83;;;;;;;22.05;42.85;101359.88;7389018;19;20018;-81
2023/01/27 05:53:39;;;;;;;0.47;0.45;;;;;;;21.89;42.80;101363.53;7390848;19;20504;-81
2023/01/27 05:56:09;;;;;;;7.32;1.80;;;;;;;22.22;42.25;101369.13;7388648;19;20013;-84
2023/01/27 05:58:35;;;;;;;2.97;1.92;;;;;;;22.55;41.62;101369.00;7388019;19;20018;-82
2023/01/27 06:01:11;;;;;;;1.05;1.02;;;;;;;22.76;41.38;101365.84;7392047;19;20018;-80
2023/01/27 06:03:37;;;;;;;2.28;0.60;;;;;;;22.79;40.69;101356.28;7386224;19;20013;-80
2023/01/27 06:06:05;;;;;;;2.60;1.15;;;;;;;18.43;42.49;101370.91;7386362;19;20021;-80
2023/01/27 06:08:31;;;;;;;1.48;1.05;;;;;;;7.45;100.00;101388.81;7385749;19;20014;-81
2023/01/27 06:10:58;;;;;;;4.53;1.65;;;;;;;9.36;100.00;101377.91;7388212;19;20363;-80
2023/01/27 06:13:25;;;;;;;1.10;0.65;;;;;;;20.81;52.73;101362.34;7391486;19;20026;-80
2023/01/27 06:15:51;;;;;;;6.93;1.38;;;;;;;22.02;46.58;101349.56;7386877;19;20023;-81
2023/01/27 06:18:18;;;;;;;5.93;1.88;;;;;;;23.01;43.85;101354.09;7388545;19;20472;-80
2023/01/27 06:20:44;;;;;;;1.38;0.77;;;;;;;23.49;41.80;101356.34;7386673;19;20018;-80
2023/01/27 06:23:12;;;;;;;4.50;1.95;;;;;;;23.80;40.97;101355.81;7385852;19;20413;-80
2023/01/27 06:25:44;;;;;;;2.20;0.68;;;;;;;24.50;39.98;101351.19;7387117;19;20054;-80
2023/01/27 06:28:12;;;;;;;2.67;0.75;;;;;;;24.67;38.87;101351.72;7385703;19;20025;-80
2023/01/27 06:30:39;;;;;;;1.90;0.82;;;;;;;24.56;39.20;101360.44;7387139;19;20030;-80
2023/01/27 06:33:05;;;;;;;0.43;0.35;;;;;;;24.59;38.86;101359.34;7387752;19;20081;-80
2023/01/27 06:35:33;;;;;;;0.73;0.57;;;;;;;24.10;39.42;101356.56;7387713;19;20018;-80
2023/01/27 06:38:01;;;;;;;4.85;1.63;;;;;;;24.39;38.55;101357.00;7388079;19;20018;-81
2023/01/27 06:40:29;;;;;;;0.98;0.38;;;;;;;24.32;38.01;101360.47;7386854;19;20017;-80
2023/01/27 06:42:55;;;;;;;4.28;1.52;;;;;;;24.30;38.60;101357.41;7387254;19;20022;-80
2023/01/27 06:45:22;;;;;;;1.95;1.00;;;;;;;23.24;38.91;101361.16;7385745;19;20019;-80
2023/01/27 06:47:59;;;;;;;2.28;1.55;;;;;;;25.07;37.14;101356.41;7383762;19;20788;-80
2023/01/27 06:50:27;;;;;;;2.15;0.52;;;;;;;25.02;36.67;101351.53;7387274;19;20022;-81
2023/01/27 06:53:01;;;;;;;1.60;1.42;;;;;;;25.21;36.65;101357.97;7389351;19;20019;-81
2023/01/27 06:55:28;;;;;;;8.98;1.98;;;;;;;24.72;36.57;101365.16;7387849;19;20024;-81
2023/01/27 06:57:54;;;;;;;2.38;0.95;;;;;;;24.87;36.50;101373.25;7387748;19;20022;-81
2023/01/27 07:00:20;;;;;;;6.90;1.90;;;;;;;24.45;36.77;101374.81;7390101;19;20039;-80
2023/01/27 07:02:47;;;;;;;2.78;1.80;;;;;;;23.97;37.39;101376.31;7391595;19;20553;-80
2023/01/27 07:05:13;;;;;;;4.38;1.38;;;;;;;24.16;37.16;101365.06;7386069;19;20319;-81
2023/01/27 07:07:39;;;;;;;0.80;0.40;;;;;;;24.52;36.74;101371.34;7386008;19;20015;-80
2023/01/27 07:10:07;;;;;;;0.20;0.20;;;;;;;24.51;36.92;101367.75;7384135;19;20044;-80
2023/01/27 07:12:36;;;;;;;8.90;2.65;;;;;;;24.33;36.74;101373.41;7390404;19;20085;-80
2023/01/27 07:15:05;;;;;;;4.10;2.05;;;;;;;24.08;37.25;101376.25;7388282;19;20022;-80
2023/01/27 07:17:31;;;;;;;2.15;1.17;;;;;;;24.46;37.08;101379.19;7387453;19;20023;-80
2023/01/27 07:19:57;;;;;;;1.70;1.58;;;;;;;24.58;37.06;101374.94;7385807;19;20018;-80
2023/01/27 07:22:24;;;;;;;2.65;1.55;;;;;;;24.88;36.39;101377.66;7387933;19;20018;-80
2023/01/27 07:24:50;;;;;;;5.40;1.42;;;;;;;22.04;39.66;101392.41;7389519;19;20074;-80
2023/01/27 07:27:16;;;;;;;12.32;3.05;;;;;;;24.27;36.90;101375.53;7386341;19;20371;-80
2023/01/27 07:29:43;;;;;;;18.38;2.58;;;;;;;24.35;36.71;101380.09;7386076;19;20011;-80
2023/01/27 07:32:09;;;;;;;2.67;2.47;;;;;;;24.14;36.85;101383.97;7388060;19;20031;-80
2023/01/27 07:34:35;;;;;;;16.05;3.22;;;;;;;23.98;37.05;101383.56;7388179;19;20049;-80
2023/01/27 07:37:02;;;;;;;1.63;1.35;;;;;;;23.80;37.41;101383.50;7390153;19;20019;-80
2023/01/27 07:39:28;;;;;;;1.63;0.90;;;;;;;23.68;37.47;101388.50;7387039;19;20010;-80
2023/01/27 07:41:54;;;;;;;9.73;3.08;;;;;;;23.59;38.04;101397.38;7387911;19;20013;-81
2023/01/27 07:44:21;;;;;;;1.63;1.02;;;;;;;23.40;37.87;101392.88;7383266;19;20018;-81
2023/01/27 07:46:47;;;;;;;5.28;2.33;;;;;;;23.40;37.80;101396.50;7383545;19;20046;-81
2023/01/27 07:49:13;;;;;;;4.88;1.65;;;;;;;23.17;38.03;101406.44;7382919;19;20020;-80
2023/01/27 07:51:39;;;;;;;8.82;1.05;;;;;;;23.19;37.82;101409.53;7386753;19;20352;-80
2023/01/27 07:54:05;;;;;;;1.58;1.20;;;;;;;23.12;37.92;101398.72;7387110;19;20024;-80
2023/01/27 07:56:31;;;;;;;0.90;0.90;;;;;;;23.08;38.33;101403.91;7384790;19;20504;-80
2023/01/27 07:58:58;;;;;;;0.50;0.50;;;;;;;23.03;38.38;101407.53;7385875;19;20078;-80
2023/01/27 08:01:24;;;;;;;0.90;0.40;;;;;;;23.25;38.29;101396.81;7384274;19;20018;-80
2023/01/27 08:03:50;;;;;;;0.73;0.73;;;;;;;23.27;37.67;101404.81;7384584;19;20039;-80
2023/01/27 08:06:16;;;;;;;2.83;0.90;;;;;;;23.48;38.02;101406.00;7383917;19;20102;-81
2023/01/27 08:08:42;;;;;;;0.75;0.43;;;;;;;23.53;37.78;101407.25;7384225;19;20090;-81
2023/01/27 08:11:13;;;;;;;5.20;1.17;;;;;;;23.49;37.54;101413.22;7383406;19;20427;-81
2023/01/27 08:13:40;;;;;;;1.45;0.75;;;;;;;23.41;37.79;101420.78;7387970;19;20018;-80
2023/01/27 08:16:11;;;;;;;2.85;1.40;;;;;;;23.08;37.81;101432.31;7389217;19;20017;-80
2023/01/27 08:18:37;;;;;;;6.70;2.67;;;;;;;23.22;37.62;101420.59;7388159;19;20010;-80
2023/01/27 08:21:05;;;;;;;2.08;1.85;;;;;;;23.53;37.99;101427.94;7385381;19;20011;-80
2023/01/27 08:23:32;;;;;;;2.67;1.48;;;;;;;23.81;37.63;101425.66;7384404;19;20428;-80
2023/01/27 08:26:01;;;;;;;13.00;2.28;;;;;;;23.85;37.88;101431.81;7386447;19;20050;-80
2023/01/27 08:28:29;;;;;;;0.68;0.68;;;;;;;23.75;38.02;101430.63;7384476;19;20010;-81
2023/01/27 08:31:07;;;;;;;2.47;0.30;;;;;;;23.89;38.10;101437.97;7385900;19;20022;-81
2023/01/27 08:33:34;;;;;;;0.35;0.35;;;;;;;23.53;38.48;101439.31;7387733;19;20078;-80
2023/01/27 08:36:20;;;;;;;0.82;0.55;;;;;;;22.49;39.67;101450.63;7385601;19;20006;-80
2023/01/27 08:38:48;;;;;;;5.00;1.60;;;;;;;14.75;55.01;101463.19;7389707;19;20050;-79
2023/01/27 08:41:20;;;;;;;0.30;0.15;;;;;;;14.06;67.35;101468.41;7392250;19;20022;-80
2023/01/27 08:43:47;;;;;;;0.17;0.17;;;;;;;13.73;71.25;101475.72;7391966;19;20030;-79
2023/01/27 08:46:14;;;;;;;28.13;1.75;;;;;;;12.82;83.86;101470.16;7394122;19;20014;-80
2023/01/27 08:48:41;;;;;;;2.15;1.70;;;;;;;12.59;88.93;101476.16;7391344;19;20014;-80
2023/01/27 08:51:08;;;;;;;4.85;1.20;;;;;;;12.90;88.53;101485.47;7389376;19;20023;-80
2023/01/27 08:53:35;;;;;;;5.47;1.77;;;;;;;12.78;90.72;101483.50;7392428;19;20077;-79
2023/01/27 08:56:06;;;;;;;2.05;1.23;;;;;;;12.87;91.15;101488.38;7390860;19;20018;-79
2023/01/27 08:58:32;;;;;;;0.32;0.15;;;;;;;12.93;92.15;101495.75;7392010;19;20023;-80
2023/01/27 09:01:03;;;;;;;1.42;0.77;;;;;;;13.07;92.58;101494.50;7392167;19;20078;-79
2023/01/27 09:03:30;;;;;;;0.57;0.22;;;;;;;12.86;94.63;101498.03;7388796;19;20019;-80
2023/01/27 09:05:56;;;;;;;8.13;0.47;;;;;;;12.74;97.00;101498.81;7390808;19;20746;-79
2023/01/27 09:08:23;;;;;;;1.60;0.98;;;;;;;12.95;94.72;101495.28;7389777;19;20018;-79
2023/01/27 09:10:49;;;;;;;3.58;1.08;;;;;;;13.82;91.90;101498.94;7387515;19;20015;-80
2023/01/27 09:13:17;;;;;;;0.63;0.30;;;;;;;13.44;93.35;101504.78;7393729;19;20695;-79
2023/01/27 09:15:43;;;;;;;6.45;1.30;;;;;;;13.66;92.52;101510.38;7390201;19;20011;-80
2023/01/27 09:18:09;;;;;;;0.52;0.52;;;;;;;13.29;95.63;101497.34;7388868;19;20524;-80
2023/01/27 09:20:36;;;;;;;0.85;0.60;;;;;;;13.49;94.55;101509.75;7390459;19;20046;-81
2023/01/27 09:23:04;;;;;;;3.17;0.90;;;;;;;13.61;94.57;101511.72;7388196;19;20018;-81
2023/01/27 09:25:30;;;;;;;8.15;1.38;;;;;;;13.43;95.81;101502.41;7388556;19;20651;-82
2023/01/27 09:27:58;;;;;;;3.25;1.50;;;;;;;13.39;96.18;101504.56;7388972;19;20635;-81
2023/01/27 09:30:26;;;;;;;0.75;0.40;;;;;;;14.21;91.44;101503.81;7386939;19;20543;-81
2023/01/27 09:32:57;;;;;;;1.10;0.47;;;;;;;13.64;92.48;101505.19;7393695;19;20042;-81
2023/01/27 09:35:24;;;;;;;4.65;0.50;;;;;;;13.89;91.24;101506.28;7394574;19;20027;-81
2023/01/27 09:37:58;;;;;;;2.28;0.77;;;;;;;13.55;93.49;101498.78;7390364;19;20547;-80
2023/01/27 09:40:42;;;;;;;1.65;0.50;;;;;;;13.57;94.43;101499.88;7390145;19;20081;-80
2023/01/27 09:43:27;;;;;;;3.22;0.30;;;;;;;13.25;96.36;101499.50;7388461;19;20022;-80
2023/01/27 09:46:01;;;;;;;0.45;0.45;;;;;;;13.31;96.52;101498.44;7386132;19;20035;-81
2023/01/27 09:48:47;;;;;;;0.65;0.30;;;;;;;13.38;95.43;101498.16;7386039;19;20018;-81
2023/01/27 09:51:55;;;;;;;2.33;0.63;;;;;;;14.31;89.77;101491.41;7389696;19;20018;-81
2023/01/27 09:54:40;;;;;;;1.20;0.75;;;;;;;14.64;86.35;101496.53;7390374;19;20018;-81
2023/01/27 09:57:28;;;;;;;0.13;0.13;;;;;;;15.15;83.88;101487.06;7391833;19;20015;-81
2023/01/27 10:00:08;;;;;;;0.45;0.45;;;;;;;15.39;80.52;101483.63;7392044;19;20021;-80
2023/01/27 10:02:37;;;;;;;0.52;0.30;;;;;;;14.73;82.55;101491.69;7389641;19;20369;-80
2023/01/27 10:05:14;;;;;;;0.43;0.43;;;;;;;14.56;84.57;101493.22;7387856;19;20014;-81
2023/01/27 10:07:46;;;;;;;1.55;0.90;;;;;;;14.75;84.15;101497.63;7389780;19;20035;-80
2023/01/27 10:10:41;;;;;;;1.40;1.30;;;;;;;15.24;80.65;101499.53;7387904;19;20022;-80
2023/01/27 10:13:46;;;;;;;1.95;1.00;;;;;;;15.65;77.86;101501.72;7387052;19;20014;-81
2023/01/27 10:16:34;;;;;;;1.67;0.28;;;;;;;15.35;76.89;101502.66;7387204;19;20357;-81
2023/01/27 10:19:43;;;;;;;0.40;0.40;;;;;;;14.36;79.53;101506.84;7387450;19;20053;-81
2023/01/27 10:22:29;;;;;;;0.20;0.13;;;;;;;14.89;79.90;101499.06;7388664;19;20023;-81
2023/01/27 10:25:07;;;;;;;0.10;0.10;;;;;;;15.04;78.94;101509.22;7390936;19;20022;-81
2023/01/27 10:27:44;;;;;;;0.30;0.30;;;;;;;14.88;76.90;101500.28;7385898;19;20018;-81
2023/01/27 10:30:19;;;;;;;0.70;0.22;;;;;;;15.12;76.45;101499.22;7385728;19;20010;-81
2023/01/27 10:32:57;;;;;;;0.10;0.05;;;;;;;15.03;75.18;101499.22;7389487;19;20038;-81
2023/01/27 10:36:05;;;;;;;0.30;0.30;;;;;;;15.08;75.91;101498.59;7383843;19;20021;-82
2023/01/27 10:38:39;;;;;;;4.60;1.33;;;;;;;14.32;77.96;101498.59;7382334;19;20039;-81
2023/01/27 10:41:40;;;;;;;5.80;0.50;;;;;;;14.70;78.84;101495.44;7387637;19;20489;-83
2023/01/27 10:44:28;;;;;;;0.43;0.43;;;;;;;14.77;75.71;101488.75;7384919;19;20027;-83
2023/01/27 10:47:20;;;;;;;0.10;0.10;;;;;;;14.88;74.11;101489.06;7385681;19;20018;-80
2023/01/27 10:49:57;;;;;;;0.38;0.10;;;;;;;14.81;73.12;101489.38;7384845;19;20494;-82
2023/01/27 10:52:30;;;;;;;0.22;0.13;;;;;;;14.50;74.16;101492.28;7387798;19;20520;-80
2023/01/27 10:55:03;;;;;;;0.10;0.10;;;;;;;13.80;77.18;101492.22;7391542;19;20025;-84
2023/01/27 10:57:40;;;;;;;0.10;0.10;;;;;;;13.79;75.92;101493.47;7380009;19;20018;-82
2023/01/27 11:00:39;;;;;;;1.55;0.30;;;;;;;14.41;73.29;101489.44;7387127;19;20010;-81
2023/01/27 11:03:09;;;;;;;0.10;0.05;;;;;;;13.89;74.79;101486.69;7391265;19;20050;-83
2023/01/27 11:05:40;;;;;;;0.38;0.10;;;;;;;14.22;72.33;101479.38;7388501;19;20015;-82
2023/01/27 11:08:16;;;;;;;0.10;0.10;;;;;;;14.09;72.94;101481.50;7391719;19;20552;-81
2023/01/27 11:13:38;;;;;;;0.10;0.00;;;;;;;13.21;75.73;101488.41;7394283;19;20496;-86
2023/01/27 11:16:12;;;;;;;0.75;0.20;;;;;;;13.83;75.01;101488.53;7392914;19;20472;-85
2023/01/27 11:18:40;;;;;;;0.35;0.32;;;;;;;13.76;75.22;101483.19;7394287;19;20018;-86
2023/01/27 11:21:16;;;;;;;0.25;0.25;;;;;;;13.74;74.00;101488.47;7392282;19;20017;-84
2023/01/27 11:23:47;;;;;;;1.40;0.28;;;;;;;14.84;72.17;101475.19;7390431;19;20045;-84
2023/01/27 11:26:23;;;;;;;;;;;;;;;15.16;69.42;101468.97;7392160;19;20527;-86
2023/01/27 11:28:59;;;;;;;0.10;0.10;;;;;;;14.07;70.19;101470.75;7387737;19;19939;-83
2023/01/27 11:31:34;;;;;;;0.10;0.10;;;;;;;14.32;69.91;101476.16;7389060;19;20010;-84
2023/01/27 11:34:21;;;;;;;0.13;0.13;;;;;;;14.43;69.67;101470.13;7387365;19;20575;-81
2023/01/27 11:36:49;;;;;;;0.10;0.10;;;;;;;14.19;68.51;101467.06;7387195;19;20022;-83
2023/01/27 11:39:17;;;;;;;0.10;0.10;;;;;;;14.53;67.81;101466.09;7387529;19;20022;-83
2023/01/27 11:41:57;;;;;;;0.10;0.00;;;;;;;14.15;68.38;101471.25;7385762;19;20019;-83
2023/01/27 11:44:27;;;;;;;0.10;0.10;;;;;;;13.71;67.68;101472.59;7385369;19;20014;-83
2023/01/27 11:46:54;;;;;;;0.70;0.38;;;;;;;14.22;67.47;101466.16;7385246;19;20015;-82
2023/01/27 11:49:28;;;;;;;0.47;0.10;;;;;;;14.12;66.16;101455.38;7384722;19;20079;-82
2023/01/27 11:52:04;;;;;;;0.10;0.00;;;;;;;14.04;66.97;101454.06;7390514;19;20051;-86
2023/01/27 11:54:54;;;;;;;0.10;0.00;;;;;;;14.13;67.29;101448.50;7393360;19;20021;-86
2023/01/27 11:57:26;;;;;;;0.10;0.00;;;;;;;13.66;67.49;101454.38;7387639;19;20010;-87
2023/01/27 12:00:15;;;;;;;0.10;0.10;;;;;;;14.06;67.96;101446.00;7387184;19;20477;-86
2023/01/27 12:02:51;;;;;;;0.10;0.10;;;;;;;14.57;67.44;101438.72;7386412;19;20018;-85
2023/01/27 12:05:26;;;;;;;0.30;0.30;;;;;;;14.33;67.35;101440.53;7385684;19;20011;-85
2023/01/27 12:08:00;;;;;;;0.10;0.10;;;;;;;14.06;68.07;101434.78;7391701;19;20015;-86
2023/01/27 12:10:32;;;;;;;0.68;0.43;;;;;;;14.14;68.41;101434.03;7389213;19;20015;-84
2023/01/27 12:13:17;;;;;;;;;;;;;;;13.79;70.20;101440.28;7396249;19;20693;-85
2023/01/27 12:15:54;;;;;;;0.22;0.17;;;;;;;13.04;75.32;101433.84;7396755;19;19915;-84